Flight Track Log - Related Links

Times and Time Zones

All times are in EDT time to prevent confusion due to time zone crossing. See the RPA1079 flight status page for this flight to view local times or setup timezone preferences in your user account.

Time Position Orientation Groundspeed Altitude Reporting Facility
EDT Latitude Longitude Course Direction KTS MPH feet Rate Location/Type
Wed 12:44:38 PM 39.8667 -104.5500 113° Southeast 230 265 7,300  Level Denver TRACON
Wed 12:45:32 PM 39.8333 -104.4500 102° East 294 338 9,300 2,368 Climbing Denver TRACON
Wed 12:46:32 PM 39.8167 -104.3500 95° East 320 368 11,800 2,604 Climbing Denver TRACON
Wed 12:47:18 PM 39.8108 -104.2550 100° East 326 375 13,900 2,611 Climbing Denver Center
Wed 12:48:20 PM 39.7947 -104.1347 100° East 337 388 16,500 2,400 Climbing Denver Center
Wed 12:49:23 PM 39.7761 -103.9967 100° East 359 413 18,900 2,208 Climbing Denver Center
Wed 12:50:25 PM 39.7572 -103.8625 99° East 374 430 21,100 2,112 Climbing Denver Center
Wed 12:51:28 PM 39.7383 -103.7086 96° East 383 441 23,300 1,905 Climbing Denver Center
Wed 12:52:31 PM 39.7267 -103.5708 96° East 401 461 25,100 1,872 Climbing Denver Center
Wed 12:53:33 PM 39.7136 -103.4028 96° East 413 475 27,200 1,728 Climbing Denver Center
Wed 12:54:36 PM 39.7008 -103.2575 102° East 421 484 28,700 1,392 Climbing Denver Center
Wed 12:55:38 PM 39.6722 -103.0869 104° East 432 497 30,100 1,104 Climbing Denver Center
Wed 12:56:41 PM 39.6431 -102.9378 104° East 439 505 31,000 1,296 Climbing Denver Center
Wed 12:57:43 PM 39.6086 -102.7636 105° East 446 513 32,800 1,488 Climbing Denver Center
Wed 12:58:46 PM 39.5786 -102.6147 105° East 447 514 34,100 1,440 Climbing Denver Center
Wed 12:59:48 PM 39.5433 -102.4436 105° East 443 510 35,800 1,296 Climbing Denver Center
Wed 01:00:51 PM 39.5133 -102.2978 105° East 440 506 36,800 1,143 Climbing Denver Center
Wed 01:01:54 PM 39.4781 -102.1283 105° East 438 504 38,200 1,008 Climbing Denver Center
Wed 01:02:56 PM 39.4494 -101.9856 105° East 432 497 38,900 384 Climbing Denver Center
Wed 01:03:59 PM 39.4142 -101.8183 106° East 432 497 39,000 48 Climbing Denver Center
Wed 01:05:01 PM 39.3828 -101.6772 116° Southeast 429 494 39,000  Level Denver Center
Wed 01:06:04 PM 39.3239 -101.5222 116° Southeast 431 496 39,000  Level Denver Center
Wed 01:07:06 PM 39.2736 -101.3894 116° Southeast 432 497 39,000  Level Denver Center
Wed 01:08:09 PM 39.2161 -101.2350 117° Southeast 430 495 39,000  Level Denver Center
Wed 01:09:11 PM 39.1650 -101.1033 116° Southeast 430 495 39,000  Level Denver Center
Wed 01:10:14 PM 39.1058 -100.9478 116° Southeast 432 497 39,000  Level Denver Center
Wed 01:11:16 PM 39.0461 -100.7936 116° Southeast 432 497 39,000  Level Denver Center
Wed 01:12:19 PM 38.9986 -100.6678 116° Southeast 434 499 39,000  Level Denver Center
Wed 01:13:21 PM 38.9392 -100.5122 117° Southeast 434 499 39,000  Level Denver Center
Wed 01:14:24 PM 38.8878 -100.3811 117° Southeast 431 496 39,000  Level Denver Center
Wed 01:15:26 PM 38.8278 -100.2281 116° Southeast 430 495 39,000  Level Denver Center
Wed 01:16:29 PM 38.7767 -100.0961 117° Southeast 431 496 39,000  Level Denver Center
Wed 01:17:31 PM 38.7161 -99.9442 117° Southeast 429 494 39,000 -624 Level Denver Center
Wed 01:18:34 PM 38.6642 -99.8139 117° Southeast 429 494 37,700 -1,728 Descending Denver Center
Wed 01:19:36 PM 38.6036 -99.6633 117° Southeast 426 490 35,400 -2,112 Descending Denver Center
Wed 01:20:39 PM 38.5525 -99.5342 117° Southeast 425 489 33,300 -2,143 Descending Denver Center
Wed 01:21:42 PM 38.4897 -99.3794 117° Southeast 435 501 30,900 -2,244 Descending Denver Center
Wed 01:22:42 PM 38.4328 -99.2375 117° Southeast 436 502 28,700 -2,150 Descending Kansas City Center
Wed 01:23:42 PM 38.3794 -99.1069 116° Southeast 428 493 26,600 -2,000 Descending Kansas City Center
Wed 01:24:42 PM 38.3319 -98.9850 119° Southeast 407 468 24,700 -1,900 Descending Kansas City Center
Wed 01:25:42 PM 38.2800 -98.8653 118° Southeast 392 451 22,800 -1,900 Descending Kansas City Center
Wed 01:26:42 PM 38.2319 -98.7489 117° Southeast 381 438 20,900 -1,850 Descending Kansas City Center
Wed 01:27:42 PM 38.1842 -98.6300 119° Southeast 381 438 19,100 -1,750 Descending Kansas City Center
Wed 01:28:42 PM 38.1378 -98.5217 118° Southeast 376 433 17,400 -1,700 Descending Kansas City Center
Wed 01:29:42 PM 38.0933 -98.4136 119° Southeast 359 413 15,700 -1,678 Descending Kansas City Center
Wed 01:30:40 PM 38.0506 -98.3167 119° Southeast 343 395 14,100 -1,627 Descending Kansas City Center
Wed 01:31:40 PM 38.0019 -98.2033 120° Southeast 343 395 12,500 -1,537 Descending Kansas City Center
Wed 01:32:41 PM 37.9550 -98.0983 117° Southeast 343 395 11,000 -1,240 Descending Kansas City Center
Wed 01:33:41 PM 37.9144 -97.9964 119° Southeast 323 372 10,000 -1,240 Descending Kansas City Center
Wed 01:34:42 PM 37.8772 -97.9106 115° Southeast 287 330 8,500 -1,537 Descending Kansas City Center
Wed 01:35:42 PM 37.8461 -97.8275 118° Southeast 294 338 6,900 -1,650 Descending Kansas City Center
Wed 01:36:42 PM 37.8108 -97.7419 122° Southeast 284 327 5,200 -1,230 Descending Kansas City Center
Wed 01:37:44 PM 37.7675 -97.6533 99° East 276 318 4,400 -750 Descending Kansas City Center
Wed 01:38:42 PM 37.7572 -97.5689 101° East 262 302 3,700 -678 Descending Kansas City Center
Wed 01:39:39 PM 37.7447 -97.4869 109° East 234 269 3,100 -458 Descending Kansas City Center
Wed 01:40:40 PM 37.7275 -97.4231 178° South 182 209 2,800 -574 Descending Kansas City Center
Wed 01:41:34 PM 37.6942 -97.4219 201° Southwest 137 158 2,000 -730 Descending Kansas City Center
Wed 01:42:35 PM 37.6644 -97.4364 181° South 126 145 1,400 -328 Descending Kansas City Center
Wed 01:43:42 PM 37.6269 -97.4375 69° East 112 129 1,300 -90 Descending Kansas City Center
Wed 01:51:02 PM 37.6333 -97.4167 322° Northwest  Level FlightAware Approximate
Wed 01:52:02 PM 37.7170 -97.4993 142° Southeast  Level Estimated
Wed 01:53:02 PM 37.6333 -97.4167 142° Southeast  Level FlightAware Approximate

Login

Don't have an account? Register now (free) for customized features, flight alerts, and more!